sensor_id;sensor_type;location;lat;lon;timestamp;temperature;humidity
73141;SHT31;61339;50.558;4.696;2023-08-24T00:00:42;21.80;67.91
73141;SHT31;61339;50.558;4.696;2023-08-24T00:03:08;21.75;68.29
73141;SHT31;61339;50.558;4.696;2023-08-24T00:05:36;21.77;68.41
73141;SHT31;61339;50.558;4.696;2023-08-24T00:08:04;21.73;68.49
73141;SHT31;61339;50.558;4.696;2023-08-24T00:10:29;21.74;68.57
73141;SHT31;61339;50.558;4.696;2023-08-24T00:12:55;21.73;68.80
73141;SHT31;61339;50.558;4.696;2023-08-24T00:15:20;21.70;68.94
73141;SHT31;61339;50.558;4.696;2023-08-24T00:17:46;21.71;69.15
73141;SHT31;61339;50.558;4.696;2023-08-24T00:20:11;21.68;69.26
73141;SHT31;61339;50.558;4.696;2023-08-24T00:22:39;21.63;69.36
73141;SHT31;61339;50.558;4.696;2023-08-24T00:25:07;21.58;69.69
73141;SHT31;61339;50.558;4.696;2023-08-24T00:27:33;21.51;70.03
73141;SHT31;61339;50.558;4.696;2023-08-24T00:29:59;21.42;70.27
73141;SHT31;61339;50.558;4.696;2023-08-24T00:32:24;21.37;70.51
73141;SHT31;61339;50.558;4.696;2023-08-24T00:34:49;21.37;70.65
73141;SHT31;61339;50.558;4.696;2023-08-24T00:37:15;21.36;70.66
73141;SHT31;61339;50.558;4.696;2023-08-24T00:39:40;21.37;70.70
73141;SHT31;61339;50.558;4.696;2023-08-24T00:42:06;21.36;70.66
73141;SHT31;61339;50.558;4.696;2023-08-24T00:44:32;21.43;70.62
73141;SHT31;61339;50.558;4.696;2023-08-24T00:46:58;21.46;70.63
73141;SHT31;61339;50.558;4.696;2023-08-24T00:49:25;21.42;70.64
73141;SHT31;61339;50.558;4.696;2023-08-24T00:51:51;21.42;70.74
73141;SHT31;61339;50.558;4.696;2023-08-24T00:54:16;21.39;70.87
73141;SHT31;61339;50.558;4.696;2023-08-24T00:56:43;21.36;71.08
73141;SHT31;61339;50.558;4.696;2023-08-24T00:59:08;21.29;71.36
73141;SHT31;61339;50.558;4.696;2023-08-24T01:01:34;21.25;71.52
73141;SHT31;61339;50.558;4.696;2023-08-24T01:03:59;21.25;71.50
73141;SHT31;61339;50.558;4.696;2023-08-24T01:06:25;21.27;71.54
73141;SHT31;61339;50.558;4.696;2023-08-24T01:08:51;21.29;71.49
73141;SHT31;61339;50.558;4.696;2023-08-24T01:14:34;21.36;71.32
73141;SHT31;61339;50.558;4.696;2023-08-24T01:17:04;21.40;71.22
73141;SHT31;61339;50.558;4.696;2023-08-24T01:19:46;21.40;71.30
73141;SHT31;61339;50.558;4.696;2023-08-24T01:27:37;21.43;71.39
73141;SHT31;61339;50.558;4.696;2023-08-24T01:30:04;21.40;71.54
73141;SHT31;61339;50.558;4.696;2023-08-24T01:32:34;21.40;71.81
73141;SHT31;61339;50.558;4.696;2023-08-24T01:35:02;21.43;71.80
73141;SHT31;61339;50.558;4.696;2023-08-24T01:37:28;21.46;71.62
73141;SHT31;61339;50.558;4.696;2023-08-24T01:40:04;21.53;71.60
73141;SHT31;61339;50.558;4.696;2023-08-24T01:42:59;21.57;71.65
73141;SHT31;61339;50.558;4.696;2023-08-24T01:45:29;21.60;71.92
73141;SHT31;61339;50.558;4.696;2023-08-24T01:47:55;21.63;72.19
73141;SHT31;61339;50.558;4.696;2023-08-24T01:50:22;21.65;72.34
73141;SHT31;61339;50.558;4.696;2023-08-24T01:52:49;21.64;72.41
73141;SHT31;61339;50.558;4.696;2023-08-24T01:55:18;21.68;72.78
73141;SHT31;61339;50.558;4.696;2023-08-24T01:57:43;21.68;73.11
73141;SHT31;61339;50.558;4.696;2023-08-24T02:00:09;21.65;73.36
73141;SHT31;61339;50.558;4.696;2023-08-24T02:02:35;21.61;73.73
73141;SHT31;61339;50.558;4.696;2023-08-24T02:05:01;21.60;73.81
73141;SHT31;61339;50.558;4.696;2023-08-24T02:07:27;21.55;73.98
73141;SHT31;61339;50.558;4.696;2023-08-24T02:09:52;21.54;74.12
73141;SHT31;61339;50.558;4.696;2023-08-24T02:12:17;21.54;73.99
73141;SHT31;61339;50.558;4.696;2023-08-24T02:14:43;21.54;74.43
73141;SHT31;61339;50.558;4.696;2023-08-24T02:17:08;21.51;74.36
73141;SHT31;61339;50.558;4.696;2023-08-24T02:19:34;21.54;74.17
73141;SHT31;61339;50.558;4.696;2023-08-24T02:22:00;21.51;74.47
73141;SHT31;61339;50.558;4.696;2023-08-24T02:24:25;21.47;74.75
73141;SHT31;61339;50.558;4.696;2023-08-24T02:26:50;21.36;75.64
73141;SHT31;61339;50.558;4.696;2023-08-24T02:29:16;21.36;76.93
73141;SHT31;61339;50.558;4.696;2023-08-24T02:31:41;21.29;78.35
73141;SHT31;61339;50.558;4.696;2023-08-24T02:34:07;21.02;82.05
73141;SHT31;61339;50.558;4.696;2023-08-24T02:36:32;20.59;87.64
73141;SHT31;61339;50.558;4.696;2023-08-24T02:38:59;20.30;90.26
73141;SHT31;61339;50.558;4.696;2023-08-24T02:41:26;20.27;91.87
73141;SHT31;61339;50.558;4.696;2023-08-24T02:43:52;20.18;91.82
73141;SHT31;61339;50.558;4.696;2023-08-24T02:46:17;20.04;91.74
73141;SHT31;61339;50.558;4.696;2023-08-24T02:48:44;19.86;91.52
73141;SHT31;61339;50.558;4.696;2023-08-24T02:51:10;19.79;92.22
73141;SHT31;61339;50.558;4.696;2023-08-24T02:53:35;19.72;92.26
73141;SHT31;61339;50.558;4.696;2023-08-24T02:56:02;19.65;92.60
73141;SHT31;61339;50.558;4.696;2023-08-24T02:58:28;19.69;93.47
73141;SHT31;61339;50.558;4.696;2023-08-24T03:00:54;19.70;93.37
73141;SHT31;61339;50.558;4.696;2023-08-24T03:03:19;19.73;93.30
73141;SHT31;61339;50.558;4.696;2023-08-24T03:05:59;19.70;93.32
73141;SHT31;61339;50.558;4.696;2023-08-24T03:08:25;19.66;92.92
73141;SHT31;61339;50.558;4.696;2023-08-24T03:10:50;19.62;92.95
73141;SHT31;61339;50.558;4.696;2023-08-24T03:13:16;19.72;93.58
73141;SHT31;61339;50.558;4.696;2023-08-24T03:15:41;19.70;93.10
73141;SHT31;61339;50.558;4.696;2023-08-24T03:18:06;19.73;93.22
73141;SHT31;61339;50.558;4.696;2023-08-24T03:20:32;19.72;93.11
73141;SHT31;61339;50.558;4.696;2023-08-24T03:22:57;19.69;92.70
73141;SHT31;61339;50.558;4.696;2023-08-24T03:25:23;19.66;92.82
73141;SHT31;61339;50.558;4.696;2023-08-24T03:27:48;19.63;92.38
73141;SHT31;61339;50.558;4.696;2023-08-24T03:30:14;19.61;92.30
73141;SHT31;61339;50.558;4.696;2023-08-24T03:32:40;19.63;92.58
73141;SHT31;61339;50.558;4.696;2023-08-24T03:35:06;19.61;92.18
73141;SHT31;61339;50.558;4.696;2023-08-24T03:37:32;19.56;91.82
73141;SHT31;61339;50.558;4.696;2023-08-24T03:39:57;19.56;92.29
73141;SHT31;61339;50.558;4.696;2023-08-24T03:42:23;19.52;91.88
73141;SHT31;61339;50.558;4.696;2023-08-24T03:44:48;19.51;90.67
73141;SHT31;61339;50.558;4.696;2023-08-24T03:47:14;19.48;90.78
73141;SHT31;61339;50.558;4.696;2023-08-24T03:49:42;19.48;90.68
73141;SHT31;61339;50.558;4.696;2023-08-24T03:52:08;19.51;91.81
73141;SHT31;61339;50.558;4.696;2023-08-24T03:54:33;19.49;90.93
73141;SHT31;61339;50.558;4.696;2023-08-24T03:56:59;19.51;91.74
73141;SHT31;61339;50.558;4.696;2023-08-24T03:59:24;19.49;92.00
73141;SHT31;61339;50.558;4.696;2023-08-24T04:01:49;19.55;91.51
73141;SHT31;61339;50.558;4.696;2023-08-24T04:04:15;19.56;90.61
73141;SHT31;61339;50.558;4.696;2023-08-24T04:06:40;19.56;90.87
73141;SHT31;61339;50.558;4.696;2023-08-24T04:09:06;19.52;90.90
73141;SHT31;61339;50.558;4.696;2023-08-24T04:11:31;19.48;90.96
73141;SHT31;61339;50.558;4.696;2023-08-24T04:13:57;19.44;91.23
73141;SHT31;61339;50.558;4.696;2023-08-24T04:16:22;19.41;90.87
73141;SHT31;61339;50.558;4.696;2023-08-24T04:18:48;19.38;90.28
73141;SHT31;61339;50.558;4.696;2023-08-24T04:21:13;19.34;90.14
73141;SHT31;61339;50.558;4.696;2023-08-24T04:23:39;19.32;90.67
73141;SHT31;61339;50.558;4.696;2023-08-24T04:26:10;19.31;90.83
73141;SHT31;61339;50.558;4.696;2023-08-24T04:28:36;19.28;90.87
73141;SHT31;61339;50.558;4.696;2023-08-24T04:31:03;19.28;91.30
73141;SHT31;61339;50.558;4.696;2023-08-24T04:33:28;19.29;91.68
73141;SHT31;61339;50.558;4.696;2023-08-24T04:35:54;19.29;91.61
73141;SHT31;61339;50.558;4.696;2023-08-24T04:38:19;19.28;91.37
73141;SHT31;61339;50.558;4.696;2023-08-24T04:40:52;19.25;90.93
73141;SHT31;61339;50.558;4.696;2023-08-24T04:43:18;19.25;91.05
73141;SHT31;61339;50.558;4.696;2023-08-24T04:45:48;19.24;90.85
73141;SHT31;61339;50.558;4.696;2023-08-24T04:48:15;19.24;91.42
73141;SHT31;61339;50.558;4.696;2023-08-24T04:50:44;19.27;91.61
73141;SHT31;61339;50.558;4.696;2023-08-24T04:53:11;19.27;92.07
73141;SHT31;61339;50.558;4.696;2023-08-24T04:55:37;19.27;92.00
73141;SHT31;61339;50.558;4.696;2023-08-24T04:58:03;19.29;92.13
73141;SHT31;61339;50.558;4.696;2023-08-24T05:00:28;19.25;91.79
73141;SHT31;61339;50.558;4.696;2023-08-24T05:02:54;19.27;91.51
73141;SHT31;61339;50.558;4.696;2023-08-24T05:05:19;19.24;91.08
73141;SHT31;61339;50.558;4.696;2023-08-24T05:07:45;19.21;90.89
73141;SHT31;61339;50.558;4.696;2023-08-24T05:10:10;19.19;90.62
73141;SHT31;61339;50.558;4.696;2023-08-24T05:12:36;19.21;90.99
73141;SHT31;61339;50.558;4.696;2023-08-24T05:15:02;19.18;90.26
73141;SHT31;61339;50.558;4.696;2023-08-24T05:17:28;19.21;90.40
73141;SHT31;61339;50.558;4.696;2023-08-24T05:19:54;19.24;89.73
73141;SHT31;61339;50.558;4.696;2023-08-24T05:22:20;19.24;89.25
73141;SHT31;61339;50.558;4.696;2023-08-24T05:24:46;19.28;88.82
73141;SHT31;61339;50.558;4.696;2023-08-24T05:27:11;19.34;88.78
73141;SHT31;61339;50.558;4.696;2023-08-24T05:29:37;19.38;87.94
73141;SHT31;61339;50.558;4.696;2023-08-24T05:32:02;19.39;87.01
73141;SHT31;61339;50.558;4.696;2023-08-24T05:34:28;19.48;88.34
73141;SHT31;61339;50.558;4.696;2023-08-24T05:36:53;19.51;87.09
73141;SHT31;61339;50.558;4.696;2023-08-24T05:39:19;19.62;87.84
73141;SHT31;61339;50.558;4.696;2023-08-24T05:41:45;19.70;88.04
73141;SHT31;61339;50.558;4.696;2023-08-24T05:44:10;19.76;86.31
73141;SHT31;61339;50.558;4.696;2023-08-24T05:46:35;19.85;86.12
73141;SHT31;61339;50.558;4.696;2023-08-24T05:49:01;19.89;85.93
73141;SHT31;61339;50.558;4.696;2023-08-24T05:51:26;20.01;85.94
73141;SHT31;61339;50.558;4.696;2023-08-24T05:53:52;20.12;84.98
73141;SHT31;61339;50.558;4.696;2023-08-24T05:56:21;20.26;85.37
73141;SHT31;61339;50.558;4.696;2023-08-24T05:58:47;20.54;84.84
73141;SHT31;61339;50.558;4.696;2023-08-24T06:01:12;20.82;83.63
73141;SHT31;61339;50.558;4.696;2023-08-24T06:03:38;21.10;82.93
73141;SHT31;61339;50.558;4.696;2023-08-24T06:06:04;21.22;81.81
73141;SHT31;61339;50.558;4.696;2023-08-24T06:08:30;21.39;81.62
73141;SHT31;61339;50.558;4.696;2023-08-24T06:10:56;21.58;81.21
73141;SHT31;61339;50.558;4.696;2023-08-24T06:13:22;21.87;81.16
73141;SHT31;61339;50.558;4.696;2023-08-24T06:15:47;22.09;79.85
73141;SHT31;61339;50.558;4.696;2023-08-24T06:18:13;22.39;79.14
73141;SHT31;61339;50.558;4.696;2023-08-24T06:20:39;22.53;78.53
73141;SHT31;61339;50.558;4.696;2023-08-24T06:23:04;22.83;78.52
73141;SHT31;61339;50.558;4.696;2023-08-24T06:25:30;23.03;77.26
73141;SHT31;61339;50.558;4.696;2023-08-24T06:27:57;23.14;76.24
73141;SHT31;61339;50.558;4.696;2023-08-24T06:30:24;23.45;75.35
73141;SHT31;61339;50.558;4.696;2023-08-24T06:32:50;23.82;74.74
73141;SHT31;61339;50.558;4.696;2023-08-24T06:35:16;24.03;74.78
73141;SHT31;61339;50.558;4.696;2023-08-24T06:37:42;24.14;74.20
73141;SHT31;61339;50.558;4.696;2023-08-24T06:40:09;24.29;74.21
73141;SHT31;61339;50.558;4.696;2023-08-24T06:42:34;24.49;73.71
73141;SHT31;61339;50.558;4.696;2023-08-24T06:45:00;24.49;73.10
73141;SHT31;61339;50.558;4.696;2023-08-24T06:47:25;24.78;73.28
73141;SHT31;61339;50.558;4.696;2023-08-24T06:49:51;24.98;71.05
73141;SHT31;61339;50.558;4.696;2023-08-24T06:52:16;25.22;69.96
73141;SHT31;61339;50.558;4.696;2023-08-24T06:54:42;25.43;69.83
73141;SHT31;61339;50.558;4.696;2023-08-24T06:57:07;25.73;68.71
73141;SHT31;61339;50.558;4.696;2023-08-24T06:59:33;26.07;67.97
73141;SHT31;61339;50.558;4.696;2023-08-24T07:01:58;26.52;66.03
73141;SHT31;61339;50.558;4.696;2023-08-24T07:04:25;26.80;66.23
73141;SHT31;61339;50.558;4.696;2023-08-24T07:06:52;26.80;66.04
73141;SHT31;61339;50.558;4.696;2023-08-24T07:09:18;26.63;65.39
73141;SHT31;61339;50.558;4.696;2023-08-24T07:11:44;26.39;66.67
73141;SHT31;61339;50.558;4.696;2023-08-24T07:14:09;26.24;67.53
73141;SHT31;61339;50.558;4.696;2023-08-24T07:16:35;25.96;67.41
73141;SHT31;61339;50.558;4.696;2023-08-24T07:19:00;25.70;68.75
73141;SHT31;61339;50.558;4.696;2023-08-24T07:21:26;25.39;69.68
73141;SHT31;61339;50.558;4.696;2023-08-24T07:23:51;25.09;69.94
73141;SHT31;61339;50.558;4.696;2023-08-24T07:26:16;24.88;69.92
73141;SHT31;61339;50.558;4.696;2023-08-24T07:28:42;24.74;69.38
73141;SHT31;61339;50.558;4.696;2023-08-24T07:31:11;24.85;69.05
73141;SHT31;61339;50.558;4.696;2023-08-24T07:33:37;25.04;70.36
73141;SHT31;61339;50.558;4.696;2023-08-24T07:36:05;25.45;70.21
73141;SHT31;61339;50.558;4.696;2023-08-24T07:38:31;25.81;69.43
73141;SHT31;61339;50.558;4.696;2023-08-24T07:40:57;26.29;66.93
73141;SHT31;61339;50.558;4.696;2023-08-24T07:43:23;26.78;66.24
73141;SHT31;61339;50.558;4.696;2023-08-24T07:45:49;27.06;65.95
73141;SHT31;61339;50.558;4.696;2023-08-24T07:48:15;26.96;63.89
73141;SHT31;61339;50.558;4.696;2023-08-24T07:50:40;26.80;63.52
73141;SHT31;61339;50.558;4.696;2023-08-24T07:53:06;26.62;65.74
73141;SHT31;61339;50.558;4.696;2023-08-24T07:55:31;26.60;67.17
73141;SHT31;61339;50.558;4.696;2023-08-24T07:57:57;26.55;67.29
73141;SHT31;61339;50.558;4.696;2023-08-24T08:00:22;26.52;67.86
73141;SHT31;61339;50.558;4.696;2023-08-24T08:02:50;26.45;68.56
73141;SHT31;61339;50.558;4.696;2023-08-24T08:05:16;26.49;68.47
73141;SHT31;61339;50.558;4.696;2023-08-24T08:07:42;26.45;67.97
73141;SHT31;61339;50.558;4.696;2023-08-24T08:10:07;26.55;68.16
73141;SHT31;61339;50.558;4.696;2023-08-24T08:12:33;26.55;68.01
73141;SHT31;61339;50.558;4.696;2023-08-24T08:14:59;26.68;68.09
73141;SHT31;61339;50.558;4.696;2023-08-24T08:17:24;26.80;67.20
73141;SHT31;61339;50.558;4.696;2023-08-24T08:19:54;26.93;65.82
73141;SHT31;61339;50.558;4.696;2023-08-24T08:22:20;27.11;65.78
73141;SHT31;61339;50.558;4.696;2023-08-24T08:24:45;27.20;64.00
73141;SHT31;61339;50.558;4.696;2023-08-24T08:27:11;27.17;61.14
73141;SHT31;61339;50.558;4.696;2023-08-24T08:29:36;27.27;62.28
73141;SHT31;61339;50.558;4.696;2023-08-24T08:32:02;27.36;62.75
73141;SHT31;61339;50.558;4.696;2023-08-24T08:34:27;27.37;61.55
73141;SHT31;61339;50.558;4.696;2023-08-24T08:36:53;27.44;60.62
73141;SHT31;61339;50.558;4.696;2023-08-24T08:39:18;27.43;60.19
73141;SHT31;61339;50.558;4.696;2023-08-24T08:41:44;27.26;58.82
73141;SHT31;61339;50.558;4.696;2023-08-24T08:44:13;27.13;59.21
73141;SHT31;61339;50.558;4.696;2023-08-24T08:46:41;27.02;58.67
73141;SHT31;61339;50.558;4.696;2023-08-24T08:49:07;26.90;59.24
73141;SHT31;61339;50.558;4.696;2023-08-24T08:51:35;26.93;59.84
73141;SHT31;61339;50.558;4.696;2023-08-24T08:54:01;27.04;60.03
73141;SHT31;61339;50.558;4.696;2023-08-24T08:56:29;27.07;59.17
73141;SHT31;61339;50.558;4.696;2023-08-24T08:58:56;26.95;57.91
73141;SHT31;61339;50.558;4.696;2023-08-24T09:01:24;26.79;59.32
73141;SHT31;61339;50.558;4.696;2023-08-24T09:03:51;26.66;59.82
73141;SHT31;61339;50.558;4.696;2023-08-24T09:06:16;26.49;59.71
73141;SHT31;61339;50.558;4.696;2023-08-24T09:08:42;26.31;60.25
73141;SHT31;61339;50.558;4.696;2023-08-24T09:11:09;26.11;60.21
73141;SHT31;61339;50.558;4.696;2023-08-24T09:13:34;26.00;61.02
73141;SHT31;61339;50.558;4.696;2023-08-24T09:16:05;25.84;61.43
73141;SHT31;61339;50.558;4.696;2023-08-24T09:18:38;25.71;61.70
73141;SHT31;61339;50.558;4.696;2023-08-24T09:21:14;25.60;63.18
73141;SHT31;61339;50.558;4.696;2023-08-24T09:23:53;25.47;63.63
73141;SHT31;61339;50.558;4.696;2023-08-24T09:26:33;25.40;64.50
73141;SHT31;61339;50.558;4.696;2023-08-24T09:29:00;25.36;65.20
73141;SHT31;61339;50.558;4.696;2023-08-24T09:31:35;25.25;65.81
73141;SHT31;61339;50.558;4.696;2023-08-24T09:34:02;25.22;65.69
73141;SHT31;61339;50.558;4.696;2023-08-24T09:36:31;25.12;66.11
73141;SHT31;61339;50.558;4.696;2023-08-24T09:38:58;25.04;67.27
73141;SHT31;61339;50.558;4.696;2023-08-24T09:41:48;24.96;67.97
73141;SHT31;61339;50.558;4.696;2023-08-24T09:44:14;24.92;68.70
73141;SHT31;61339;50.558;4.696;2023-08-24T09:46:41;24.88;68.78
73141;SHT31;61339;50.558;4.696;2023-08-24T09:49:08;24.85;69.05
73141;SHT31;61339;50.558;4.696;2023-08-24T09:51:34;24.75;69.95
73141;SHT31;61339;50.558;4.696;2023-08-24T09:54:04;24.61;70.76
73141;SHT31;61339;50.558;4.696;2023-08-24T09:56:42;24.39;72.76
73141;SHT31;61339;50.558;4.696;2023-08-24T09:59:13;24.20;73.92
73141;SHT31;61339;50.558;4.696;2023-08-24T10:01:44;23.93;75.84
73141;SHT31;61339;50.558;4.696;2023-08-24T10:04:10;23.78;76.72
73141;SHT31;61339;50.558;4.696;2023-08-24T10:06:38;23.58;76.30
73141;SHT31;61339;50.558;4.696;2023-08-24T10:09:07;23.35;77.77
73141;SHT31;61339;50.558;4.696;2023-08-24T10:11:35;23.14;78.48
73141;SHT31;61339;50.558;4.696;2023-08-24T10:14:15;22.93;78.75
73141;SHT31;61339;50.558;4.696;2023-08-24T10:16:45;22.76;79.51
73141;SHT31;61339;50.558;4.696;2023-08-24T10:19:13;22.69;82.73
73141;SHT31;61339;50.558;4.696;2023-08-24T10:21:39;22.63;85.59
73141;SHT31;61339;50.558;4.696;2023-08-24T10:24:06;22.45;87.56
73141;SHT31;61339;50.558;4.696;2023-08-24T10:26:33;22.29;88.37
73141;SHT31;61339;50.558;4.696;2023-08-24T10:28:59;22.18;89.28
73141;SHT31;61339;50.558;4.696;2023-08-24T10:31:26;22.08;89.64
73141;SHT31;61339;50.558;4.696;2023-08-24T10:33:53;22.02;89.98
73141;SHT31;61339;50.558;4.696;2023-08-24T10:36:20;21.98;90.12
73141;SHT31;61339;50.558;4.696;2023-08-24T10:38:47;21.97;90.19
73141;SHT31;61339;50.558;4.696;2023-08-24T10:41:13;21.95;90.08
73141;SHT31;61339;50.558;4.696;2023-08-24T10:43:40;21.90;90.30
73141;SHT31;61339;50.558;4.696;2023-08-24T10:46:12;21.93;90.25
73141;SHT31;61339;50.558;4.696;2023-08-24T10:53:39;21.93;90.02
73141;SHT31;61339;50.558;4.696;2023-08-24T10:56:11;21.95;90.66
73141;SHT31;61339;50.558;4.696;2023-08-24T10:58:37;21.95;90.12
73141;SHT31;61339;50.558;4.696;2023-08-24T11:01:02;22.00;88.90
73141;SHT31;61339;50.558;4.696;2023-08-24T11:03:31;22.12;88.70
73141;SHT31;61339;50.558;4.696;2023-08-24T11:05:58;22.28;88.37
73141;SHT31;61339;50.558;4.696;2023-08-24T11:08:44;22.43;87.80
73141;SHT31;61339;50.558;4.696;2023-08-24T11:11:23;22.53;87.92
73141;SHT31;61339;50.558;4.696;2023-08-24T11:17:01;22.64;87.78
73141;SHT31;61339;50.558;4.696;2023-08-24T11:19:48;22.69;86.16
73141;SHT31;61339;50.558;4.696;2023-08-24T11:22:14;22.62;84.80
73141;SHT31;61339;50.558;4.696;2023-08-24T11:24:39;22.66;85.72
73141;SHT31;61339;50.558;4.696;2023-08-24T11:27:05;22.60;85.34
73141;SHT31;61339;50.558;4.696;2023-08-24T11:29:30;22.52;85.33
73141;SHT31;61339;50.558;4.696;2023-08-24T11:31:57;22.64;88.87
73141;SHT31;61339;50.558;4.696;2023-08-24T11:34:22;22.70;89.83
73141;SHT31;61339;50.558;4.696;2023-08-24T11:36:49;22.77;90.27
73141;SHT31;61339;50.558;4.696;2023-08-24T11:39:22;22.66;90.17
73141;SHT31;61339;50.558;4.696;2023-08-24T11:41:59;22.42;89.58
73141;SHT31;61339;50.558;4.696;2023-08-24T11:44:25;22.48;90.76
73141;SHT31;61339;50.558;4.696;2023-08-24T11:46:51;22.49;91.11
73141;SHT31;61339;50.558;4.696;2023-08-24T11:49:16;22.53;91.52
73141;SHT31;61339;50.558;4.696;2023-08-24T11:51:42;22.67;92.30
73141;SHT31;61339;50.558;4.696;2023-08-24T11:54:08;22.67;91.50
73141;SHT31;61339;50.558;4.696;2023-08-24T11:56:41;22.62;91.67
73141;SHT31;61339;50.558;4.696;2023-08-24T11:59:11;22.57;92.02
73141;SHT31;61339;50.558;4.696;2023-08-24T12:01:37;22.53;91.85
73141;SHT31;61339;50.558;4.696;2023-08-24T12:04:04;22.46;92.48
73141;SHT31;61339;50.558;4.696;2023-08-24T12:06:29;22.38;92.48
73141;SHT31;61339;50.558;4.696;2023-08-24T12:08:55;22.36;93.29
73141;SHT31;61339;50.558;4.696;2023-08-24T12:11:21;22.23;92.20
73141;SHT31;61339;50.558;4.696;2023-08-24T12:13:51;22.16;92.49
73141;SHT31;61339;50.558;4.696;2023-08-24T12:16:18;22.11;92.97
73141;SHT31;61339;50.558;4.696;2023-08-24T12:18:51;21.98;92.13
73141;SHT31;61339;50.558;4.696;2023-08-24T12:21:17;21.94;92.99
73141;SHT31;61339;50.558;4.696;2023-08-24T12:23:44;21.88;92.96
73141;SHT31;61339;50.558;4.696;2023-08-24T12:26:17;21.83;92.88
73141;SHT31;61339;50.558;4.696;2023-08-24T12:28:43;21.71;92.66
73141;SHT31;61339;50.558;4.696;2023-08-24T12:31:08;21.60;92.89
73141;SHT31;61339;50.558;4.696;2023-08-24T12:33:33;21.40;93.00
73141;SHT31;61339;50.558;4.696;2023-08-24T12:35:59;21.29;93.13
73141;SHT31;61339;50.558;4.696;2023-08-24T12:38:26;21.18;93.30
73141;SHT31;61339;50.558;4.696;2023-08-24T12:40:52;21.10;93.85
73141;SHT31;61339;50.558;4.696;2023-08-24T12:43:17;20.88;93.01
73141;SHT31;61339;50.558;4.696;2023-08-24T12:45:43;20.82;94.23
73141;SHT31;61339;50.558;4.696;2023-08-24T12:48:10;20.74;93.89
73141;SHT31;61339;50.558;4.696;2023-08-24T12:50:37;20.64;94.26
73141;SHT31;61339;50.558;4.696;2023-08-24T12:53:02;20.58;94.06
73141;SHT31;61339;50.558;4.696;2023-08-24T12:55:28;20.49;94.39
73141;SHT31;61339;50.558;4.696;2023-08-24T12:57:54;20.48;94.75
73141;SHT31;61339;50.558;4.696;2023-08-24T13:00:20;20.35;94.55
73141;SHT31;61339;50.558;4.696;2023-08-24T13:02:45;20.31;94.72
73141;SHT31;61339;50.558;4.696;2023-08-24T13:05:11;20.20;95.19
73141;SHT31;61339;50.558;4.696;2023-08-24T13:07:37;20.24;95.51
73141;SHT31;61339;50.558;4.696;2023-08-24T13:10:03;20.16;95.30
73141;SHT31;61339;50.558;4.696;2023-08-24T13:12:29;20.01;95.43
73141;SHT31;61339;50.558;4.696;2023-08-24T13:14:55;19.96;95.91
73141;SHT31;61339;50.558;4.696;2023-08-24T13:17:21;19.85;95.96
73141;SHT31;61339;50.558;4.696;2023-08-24T13:19:46;19.66;96.00
73141;SHT31;61339;50.558;4.696;2023-08-24T13:22:14;19.63;96.08
73141;SHT31;61339;50.558;4.696;2023-08-24T13:24:39;19.51;96.14
73141;SHT31;61339;50.558;4.696;2023-08-24T13:27:05;19.46;96.17
73141;SHT31;61339;50.558;4.696;2023-08-24T13:29:35;19.36;96.18
73141;SHT31;61339;50.558;4.696;2023-08-24T13:32:01;19.24;96.25
73141;SHT31;61339;50.558;4.696;2023-08-24T13:34:26;19.27;96.27
73141;SHT31;61339;50.558;4.696;2023-08-24T13:36:51;19.22;96.27
73141;SHT31;61339;50.558;4.696;2023-08-24T13:39:17;19.24;96.24
73141;SHT31;61339;50.558;4.696;2023-08-24T13:41:42;19.22;96.21
73141;SHT31;61339;50.558;4.696;2023-08-24T13:44:08;19.24;96.22
73141;SHT31;61339;50.558;4.696;2023-08-24T13:46:33;19.21;96.20
73141;SHT31;61339;50.558;4.696;2023-08-24T13:48:58;19.28;96.13
73141;SHT31;61339;50.558;4.696;2023-08-24T13:51:24;19.21;96.20
73141;SHT31;61339;50.558;4.696;2023-08-24T13:53:49;19.17;96.23
73141;SHT31;61339;50.558;4.696;2023-08-24T13:56:15;19.17;96.21
73141;SHT31;61339;50.558;4.696;2023-08-24T13:58:40;19.10;96.23
73141;SHT31;61339;50.558;4.696;2023-08-24T14:01:05;19.17;96.21
73141;SHT31;61339;50.558;4.696;2023-08-24T14:03:31;19.12;96.21
73141;SHT31;61339;50.558;4.696;2023-08-24T14:05:57;19.15;96.17
73141;SHT31;61339;50.558;4.696;2023-08-24T14:08:22;19.11;96.22
73141;SHT31;61339;50.558;4.696;2023-08-24T14:10:47;19.08;96.21
73141;SHT31;61339;50.558;4.696;2023-08-24T14:13:14;19.08;96.23
73141;SHT31;61339;50.558;4.696;2023-08-24T14:15:40;19.04;96.24
73141;SHT31;61339;50.558;4.696;2023-08-24T14:18:05;19.06;96.25
73141;SHT31;61339;50.558;4.696;2023-08-24T14:20:31;19.06;96.26
73141;SHT31;61339;50.558;4.696;2023-08-24T14:22:56;19.04;96.26
73141;SHT31;61339;50.558;4.696;2023-08-24T14:25:22;19.01;96.26
73141;SHT31;61339;50.558;4.696;2023-08-24T14:27:47;19.07;96.29
73141;SHT31;61339;50.558;4.696;2023-08-24T14:30:13;19.08;96.30
73141;SHT31;61339;50.558;4.696;2023-08-24T14:32:39;19.07;96.31
73141;SHT31;61339;50.558;4.696;2023-08-24T14:35:05;19.12;96.29
73141;SHT31;61339;50.558;4.696;2023-08-24T14:37:31;19.19;96.32
73141;SHT31;61339;50.558;4.696;2023-08-24T14:39:58;19.29;96.33
73141;SHT31;61339;50.558;4.696;2023-08-24T14:42:24;19.32;96.33
73141;SHT31;61339;50.558;4.696;2023-08-24T14:44:49;19.51;96.31
73141;SHT31;61339;50.558;4.696;2023-08-24T14:47:15;19.58;96.34
73141;SHT31;61339;50.558;4.696;2023-08-24T14:49:40;19.56;96.33
73141;SHT31;61339;50.558;4.696;2023-08-24T14:52:06;19.55;96.39
73141;SHT31;61339;50.558;4.696;2023-08-24T14:54:31;19.48;96.38
73141;SHT31;61339;50.558;4.696;2023-08-24T14:56:56;19.51;96.38
73141;SHT31;61339;50.558;4.696;2023-08-24T14:59:24;19.48;96.40
73141;SHT31;61339;50.558;4.696;2023-08-24T15:01:49;19.46;96.42
73141;SHT31;61339;50.558;4.696;2023-08-24T15:04:14;19.49;96.43
73141;SHT31;61339;50.558;4.696;2023-08-24T15:06:40;19.49;96.45
73141;SHT31;61339;50.558;4.696;2023-08-24T15:09:06;19.51;96.45
73141;SHT31;61339;50.558;4.696;2023-08-24T15:11:31;19.48;96.48
73141;SHT31;61339;50.558;4.696;2023-08-24T15:13:57;19.42;96.50
73141;SHT31;61339;50.558;4.696;2023-08-24T15:16:22;19.55;96.51
73141;SHT31;61339;50.558;4.696;2023-08-24T15:18:48;19.55;96.50
73141;SHT31;61339;50.558;4.696;2023-08-24T15:21:13;19.49;96.55
73141;SHT31;61339;50.558;4.696;2023-08-24T15:23:40;19.52;96.54
73141;SHT31;61339;50.558;4.696;2023-08-24T15:26:06;19.49;96.57
73141;SHT31;61339;50.558;4.696;2023-08-24T15:29:08;19.51;96.54
73141;SHT31;61339;50.558;4.696;2023-08-24T15:31:35;19.61;96.57
73141;SHT31;61339;50.558;4.696;2023-08-24T15:34:00;19.62;96.61
73141;SHT31;61339;50.558;4.696;2023-08-24T15:36:25;19.59;96.61
73141;SHT31;61339;50.558;4.696;2023-08-24T15:38:51;19.59;96.63
73141;SHT31;61339;50.558;4.696;2023-08-24T15:41:16;19.63;96.61
73141;SHT31;61339;50.558;4.696;2023-08-24T15:43:42;19.73;96.63